Latest Coastal Weather Observations for Portland Airport

IDS60701

Issued at 7:45 am CST Thursday 2 October 2014 (issued every 10 minutes, with the page automatically refreshed every 10 minutes)

About coastal observations | Map of coastal stations | Coastal observations for SA | Marine services | Other Formats
Station Details ID: 090171 Name: CASHMORE AIRPORT Lat: -38.31 Lon: 141.47 Height: 80.9 m
Data from the previous 72 hours. | See also: Recent months at Portland Airport
Date/Time
CST
Temp

°C
Wind Pressure Rain
since 9am
mm
Weather Cloud Vis
km
Sea
Height
m
Swell
Dir
 
Speed
knots
Gust
knots
hPa Trend Height
m
Period
s
Dir
02/07:30am 12.1 WSW 12 17 1025.5 - - - - 10 - - - -
02/07:00am 12.0 WSW 11 16 1025.2 - - - - 10 - - - -
02/06:30am 11.8 WSW 11 15 1025.2 - - - - 10 - - - -
02/06:00am 11.7 W 11 14 1024.8 - - - - 10 - - - -
02/05:30am 11.7 WSW 11 18 1024.4 - - - - 10 - - - -
02/05:00am 11.9 WSW 12 19 1024.3 - - - - 10 - - - -
02/04:30am 12.0 WSW 12 17 1024.1 - - - - 10 - - - -
02/04:00am 11.9 WSW 11 17 1024.2 - - - - 10 - - - -
02/03:30am 11.7 W 14 18 1024.1 - - - - 10 - - - -
02/03:00am 11.4 WSW 12 17 1024.1 - - - - 10 - - - -
02/02:30am 11.0 W 14 19 1024.4 - 0.2 - - 10 - - - -
02/02:00am 11.1 WSW 12 19 1024.7 - - - - 10 - - - -
02/01:30am 10.7 W 9 12 1025.0 - - - - 10 - - - -
02/01:00am 10.5 W 11 16 1025.3 - - - - 10 - - - -
02/12:59am 10.5 W 11 16 1025.3 - - - - 10 - - - -
02/12:35am 10.6 WSW 15 24 1025.5 - - - - 5 - - - -
02/12:30am 11.0 WSW 13 24 1025.5 - - - - 10 - - - -
02/12:00am 11.3 W 11 15 1025.5 - - - - 10 - - - -
 
Date/Time
CST
Temp

°C
Wind Pressure Rain
since 9am
mm
Weather Cloud Vis
km
Sea
Height
m
Swell
Dir
 
Speed
knots
Gust
knots
hPa Trend Height
m
Period
s
Dir
01/11:30pm 11.6 W 12 17 1025.7 - - - - 10 - - - -
01/11:00pm 11.2 W 12 15 1025.7 - - - - 10 - - - -
01/10:30pm 11.4 W 12 15 1025.9 - - - - 10 - - - -
01/10:00pm 11.1 W 11 16 1026.0 - - - - 10 - - - -
01/09:30pm 11.5 W 13 17 1026.1 - - - - 10 - - - -
01/09:00pm 11.2 W 10 14 1026.3 - - - - 10 - - - -
01/08:30pm 11.0 W 11 16 1026.3 - 0.0 - - 10 - - - -
01/08:00pm 11.0 W 11 15 1026.3 - - - - 10 - - - -
01/07:30pm 11.6 W 12 17 1026.0 - - - - 10 - - - -
01/07:00pm 11.5 W 11 14 1026.0 - - - - 10 - - - -
01/06:30pm 11.0 W 9 13 1026.0 - - - - 10 - - - -
01/06:00pm 11.4 W 12 17 1026.0 - - - - 10 - - - -
01/05:30pm 11.8 W 11 15 1025.9 - - - - 10 - - - -
01/05:00pm 12.0 W 9 12 1025.8 - - - - 10 - - - -
01/04:30pm 12.9 WSW 12 16 1025.6 - - - - 10 - - - -
01/04:00pm 12.4 W 14 18 1025.5 - - - - 10 - - - -
01/03:30pm 12.2 W 12 16 1025.6 - - - - 10 - - - -
01/03:00pm 13.3 W 13 20 1025.6 - - - - 10 - - - -
01/02:30pm 13.5 WSW 13 19 1025.7 - - - - 10 - - - -
01/02:00pm 13.1 WSW 14 21 1025.7 - - - - 10 - - - -
01/01:30pm 13.6 WSW 15 20 1025.7 - - - - 10 - - - -
01/01:00pm 11.8 WSW 14 20 1026.2 - - - - 10 - - - -
01/12:30pm 13.5 W 13 17 1026.1 - - - - 10 - - - -
01/12:00pm 13.3 WSW 12 18 1025.9 - - - - 10 - - - -
01/11:30am 12.6 WSW 14 19 1025.8 - - - - 10 - - - -
01/11:00am 13.1 WSW 12 19 1025.8 - 0.0 - - 10 - - - -
01/10:30am 12.4 SW 12 18 1025.9 - 0.0 - - 10 - - - -
01/10:00am 11.8 WSW 13 19 1025.9 - 0.0 - - 10 - - - -
01/09:30am 12.6 WSW 12 18 1025.7 - 0.0 - - 10 - - - -
01/09:14am 11.5 WSW 15 25 1025.5 - 0.0 - - 10 - - - -
01/09:00am 11.9 WSW 13 19 1025.2 - 0.0 - - 10 - - - -
01/08:30am 11.6 SW 14 20 1024.8 - - - - 10 - - - -
01/08:00am 10.7 SW 11 15 1024.3 - - - - 10 - - - -
01/07:30am 10.0 WSW 13 19 1023.7 - - - - 10 - - - -
01/07:00am 10.4 WSW 12 18 1023.3 - - - - 10 - - - -
01/06:30am 9.0 WSW 10 12 1022.9 - - - - 10 - - - -
01/06:00am 8.7 WSW 10 14 1022.3 - - - - 10 - - - -
01/05:30am 8.6 SW 9 14 1021.8 - - Recent precip. - 10 - - - -
01/05:00am 8.1 WSW 10 13 1021.4 - - - - 10 - - - -
01/04:30am 8.9 WSW 11 18 1020.9 - - - - 10 - - - -
01/04:00am 8.6 SW 10 15 1020.7 - - - - 10 - - - -
01/03:30am 8.7 SW 13 22 1020.5 - - - - 10 - - - -
01/03:00am 8.2 SSW 8 13 1020.2 - - - - 10 - - - -
01/02:30am 9.3 SW 10 15 1019.9 - 0.4 - - 10 - - - -
01/02:00am 9.4 SW 10 15 1019.6 - - - - 10 - - - -
01/01:30am 9.1 WSW 12 17 1019.5 - - - - 10 - - - -
01/01:00am 9.1 WSW 14 21 1019.2 - - - - 10 - - - -
01/12:30am 9.0 WSW 14 19 1018.9 - - - - 10 - - - -
01/12:07am 8.8 SW 15 25 1018.8 - - - - 10 - - - -
01/12:00am 9.6 SW 14 22 1018.5 - - - - 10 - - - -
 
Date/Time
CST
Temp

°C
Wind Pressure Rain
since 9am
mm
Weather Cloud Vis
km
Sea
Height
m
Swell
Dir
 
Speed
knots
Gust
knots
hPa Trend Height
m
Period
s
Dir
30/11:30pm 8.8 WSW 13 19 1018.1 - - - - 10 - - - -
30/11:00pm 9.4 WSW 17 24 1017.7 - - - Partly cloudy 10 - - - -
30/10:30pm 9.4 WSW 17 23 1017.3 - - - Partly cloudy 10 - - - -
30/10:14pm 9.1 WSW 15 26 1017.1 - - - Partly cloudy 10 - - - -
30/10:00pm 8.9 WSW 17 26 1017.1 - - - Partly cloudy 10 - - - -
30/09:30pm 8.6 WSW 15 21 1016.5 - - - Partly cloudy 10 - - - -
30/09:16pm 8.2 WSW 15 25 1016.4 - - - - 10 - - - -
30/09:00pm 8.5 WSW 19 30 1016.1 - - - - 5 - - - -
30/08:59pm 8.5 WSW 19 30 1016.1 - - - - 6 - - - -
30/08:31pm 9.9 WSW 21 38 1015.2 - - - - 10 - - - -
30/08:30pm 9.9 WSW 20 29 1015.2 - 0.4 - - 10 - - - -
30/08:04pm 9.2 WSW 20 30 1014.9 - - - - 10 - - - -
30/08:00pm 9.3 WSW 21 30 1014.8 - - - - 10 - - - -
30/07:36pm 9.0 WSW 20 30 1014.4 - - - - 7 - - - -
30/07:30pm 9.6 W 20 29 1014.3 - - - - 9 - - - -
30/07:09pm 10.2 W 20 31 1013.4 - - - - 10 - - - -
30/07:00pm 10.0 W 21 28 1013.3 - - - Partly cloudy 10 - - - -
30/06:38pm 10.1 W 21 31 1012.8 - - - Partly cloudy 10 - - - -
30/06:30pm 10.0 W 22 30 1012.7 - - - Partly cloudy 10 - - - -
30/06:04pm 9.3 W 16 28 1012.4 - - - - 10 - - - -
30/06:00pm 9.1 W 16 25 1012.5 - - - - 10 - - - -
30/05:31pm 9.2 WSW 19 29 1012.2 - - - - 10 - - - -
30/05:30pm 9.2 WSW 20 29 1012.2 - - Recent precip. - 10 - - - -
30/05:28pm 9.0 WSW 20 31 1012.2 - - - - 10 - - - -
30/05:14pm 8.6 W 20 34 1012.1 - - - - 6 - - - -
30/05:00pm 10.6 W 20 30 1011.2 - - - - 10 - - - -
30/04:38pm 11.4 W 19 29 1011.1 - - - - 10 - - - -
30/04:30pm 11.1 W 21 30 1010.9 - - - - 10 - - - -
30/04:00pm 11.3 W 25 36 1010.3 - - - - 10 - - - -
30/03:30pm 11.8 W 23 35 1009.7 - - - - 10 - - - -
30/03:00pm 11.7 W 27 39 1009.1 - - - - 10 - - - -
30/02:47pm 11.8 WSW 24 35 1008.8 - - - - 10 - - - -
30/02:30pm 12.0 W 24 33 1008.3 - - - - 10 - - - -
30/02:28pm 12.2 W 23 33 1008.3 - - - - 10 - - - -
30/02:00pm 12.4 WSW 21 29 1007.8 - 10.2 - - 10 - - - -
30/01:38pm 12.4 WSW 20 30 1007.6 - 10.2 - - 10 - - - -
30/01:30pm 12.9 W 23 30 1007.5 - 10.2 - - 10 - - - -
30/01:02pm 11.5 W 23 34 1006.7 - 10.2 - - 10 - - - -
30/01:00pm 11.5 W 21 29 1006.6 - 10.2 - - 10 - - - -
30/12:42pm 11.2 W 19 29 1006.5 - 10.2 - - 10 - - - -
30/12:36pm 10.5 W 19 25 1006.6 - 10.2 - - 10 - - - -
30/12:32pm 9.9 W 20 30 1006.6 - 10.2 - - 10 - - - -
30/12:30pm 9.9 W 21 30 1006.7 - 10.2 - - 9 - - - -
30/12:00pm 9.8 WSW 23 37 1005.8 - 9.6 - - 4 - - - -
30/11:55am 9.9 WSW 27 37 1005.3 - 9.6 - - 3 - - - -
30/11:54am 10.1 WSW 25 33 1005.3 - 9.6 - - 2 - - - -
30/11:32am 11.5 W 24 42 1005.0 - 8.4 - - 4 - - - -
30/11:30am 13.3 WNW 22 34 1004.4 - 8.0 Recent precip. - 10 - - - -
30/11:22am 13.6 WNW 21 35 1004.3 - 8.0 - - 10 - - - -
30/11:10am 12.6 WNW 21 31 1004.5 - 8.0 - - 6 - - - -
30/11:00am 12.2 WNW 21 30 1004.5 - 7.8 - - 8 - - - -
30/10:35am 12.8 WNW 19 38 1004.5 - 6.4 - - 6 - - - -
30/10:30am 13.6 WNW 18 25 1004.3 - 6.4 - - 5 - - - -
30/10:27am 13.7 NW 19 26 1004.2 - 6.4 - - 6 - - - -
30/10:26am 13.9 NW 19 26 1004.2 - 6.4 - - 7 - - - -
30/10:00am 12.2 WNW 17 26 1004.5 - 6.2 - - 3 - - - -
30/09:31am 12.6 WNW 21 31 1005.0 - 4.0 - - 5 - - - -
30/09:30am 12.7 WNW 20 28 1004.9 - 4.0 - - 5 - - - -
30/09:24am 13.4 WNW 15 25 1004.9 - 3.8 - - 2 - - - -
30/09:18am 13.5 W 15 19 1005.1 - 2.8 - - 2 - - - -
30/09:01am 14.2 NW 22 33 1004.6 - 0.0 - - 6 - - - -
30/09:00am 14.3 NW 23 33 1004.6 - 0.0 - - 7 - - - -
30/08:34am 16.5 NW 23 35 1004.5 - 0.0 - - 10 - - - -
30/08:30am 16.8 NW 23 32 1004.5 - 0.0 - - 10 - - - -
30/08:05am 15.5 NW 22 32 1004.8 - 0.0 - - 10 - - - -
30/08:00am 15.2 NW 24 32 1004.9 - 0.0 - - 10 - - - -
30/07:33am 15.2 NW 18 31 1004.9 - 0.0 - - 10 - - - -
30/07:30am 15.1 NW 18 27 1005.0 - 0.0 - - 10 - - - -
30/07:04am 14.5 NW 15 27 1005.1 - 0.0 - - 10 - - - -
30/07:00am 14.4 NW 15 23 1005.2 - 0.0 - - 10 - - - -
30/06:30am 13.7 NW 12 19 1005.7 - 0.0 - - 10 - - - -
30/06:00am 13.1 NNW 12 18 1005.8 - 0.0 - - 10 - - - -
30/05:30am 12.7 NNW 12 18 1005.9 - 0.0 - - 10 - - - -
30/05:00am 12.8 NNW 13 18 1005.9 - 0.0 - - 10 - - - -
30/04:30am 12.5 NNW 15 22 1006.2 - 0.0 - - 10 - - - -
30/04:00am 12.3 NNW 14 20 1006.3 - 0.0 - - 10 - - - -
30/03:30am 12.1 NNW 15 20 1006.7 - 0.0 - - 10 - - - -
30/03:00am 11.9 NNW 13 18 1007.2 - 0.0 - - 10 - - - -
30/02:30am 11.8 NNW 13 20 1007.7 - 0.0 - - 10 - - - -
30/02:00am 11.6 NNW 12 18 1008.1 - 0.0 - - 10 - - - -
30/01:30am 11.0 NNW 11 17 1008.4 - 0.0 - - 10 - - - -
30/01:00am 11.0 NNW 11 17 1008.9 - 0.0 - - 10 - - - -
30/12:30am 11.0 NNW 11 15 1009.3 - 0.0 - - 10 - - - -
30/12:00am 10.9 NNW 9 14 1009.6 - 0.0 - - 10 - - - -
 
Date/Time
CST
Temp

°C
Wind Pressure Rain
since 9am
mm
Weather Cloud Vis
km
Sea
Height
m
Swell
Dir
 
Speed
knots
Gust
knots
hPa Trend Height
m
Period
s
Dir
29/11:30pm 10.7 N 8 10 1010.0 - 0.0 - - 10 - - - -
29/11:00pm 12.3 NW 9 15 1010.3 - 0.0 - - 10 - - - -
29/10:30pm 11.7 NW 10 14 1010.7 - 0.0 - - 10 - - - -
29/10:00pm 11.5 NW 9 11 1011.1 - 0.0 - - 10 - - - -
29/09:30pm 12.0 NW 11 14 1011.2 - 0.0 - - 10 - - - -
29/09:00pm 12.3 NW 11 15 1011.5 - 0.0 - - 9 - - - -
29/08:30pm 12.7 NW 11 16 1011.6 - 0.0 - - 10 - - - -
29/08:00pm 13.2 WNW 12 19 1011.6 - 0.0 - - 10 - - - -
29/07:30pm 13.0 WNW 13 18 1011.6 - 0.0 - - 10 - - - -
29/07:00pm 13.2 WNW 12 16 1011.2 - 0.0 - - 10 - - - -
29/06:30pm 13.3 WNW 13 19 1010.9 - 0.0 - - 10 - - - -
29/06:00pm 13.7 WNW 16 21 1010.4 - 0.0 - - 10 - - - -
29/05:30pm 14.1 WNW 16 25 1010.2 - 0.0 - - 10 - - - -
29/05:00pm 14.5 WNW 18 24 1010.0 - 0.0 - - 10 - - - -
29/04:36pm 14.9 WNW 19 29 1009.8 - 0.0 - - 10 - - - -
29/04:30pm 15.0 WNW 19 25 1009.8 - 0.0 - - 10 - - - -
29/04:00pm 15.1 WNW 21 29 1009.9 - 0.0 - - 10 - - - -
29/03:30pm 15.8 WNW 19 25 1010.1 - 0.0 - - 10 - - - -
29/03:00pm 16.2 W 19 24 1010.3 - 0.0 - - 10 - - - -
29/02:30pm 16.0 W 19 27 1010.6 - 0.0 - - 10 - - - -
29/02:00pm 16.6 W 18 24 1010.9 - 0.0 - - 10 - - - -
29/01:30pm 16.4 WNW 15 21 1011.0 - 0.0 - - 10 - - - -
29/01:00pm 16.5 W 16 21 1011.2 - 0.0 - - 10 - - - -
29/12:30pm 16.6 W 16 21 1011.4 - 0.0 - - 10 - - - -
29/12:00pm 16.2 W 17 23 1011.5 - 0.0 - - 10 - - - -
29/11:30am 16.6 WNW 13 19 1011.6 - 0.0 - - 10 - - - -
29/11:00am 15.4 WNW 15 22 1011.8 - 0.0 - - 10 - - - -
29/10:30am 15.0 WNW 17 24 1012.0 - 0.0 - - 10 - - - -
29/10:00am 15.1 WNW 16 26 1012.1 - 0.0 - - 10 - - - -
29/09:51am 15.4 WNW 16 26 1012.2 - 0.0 - - 10 - - - -
29/09:30am 14.9 WNW 16 21 1012.3 - 0.0 - - 10 - - - -
29/09:00am 14.2 WNW 18 24 1012.5 - 0.0 - - 10 - - - -
29/08:30am 13.8 WNW 15 23 1012.4 - 0.0 - - 10 - - - -
29/08:00am 13.9 WNW 12 21 1012.1 - 0.0 - - 10 - - - -
29/07:30am 12.7 WNW 9 13 1012.1 - 0.0 - - 10 - - - -

Other Formats:

Comma delimited format used in spreadsheet applications
http://www.bom.gov.au/fwo/IDS60701/IDS60701.94828.axf

JavaScript Object Notation format (JSON) in row-major order
http://www.bom.gov.au/fwo/IDS60701/IDS60701.94828.json